Time;durP1;ratioP1;P1;durP2;ratioP2;P2;SDS_P1;SDS_P2;PMS_P1;PMS_P2;Temp;Humidity;BMP_temperature;BMP_pressure;BME280_temperature;BME280_humidity;BME280_pressure;Samples;Min_cycle;Max_cycle;Signal;HPM_P1;HPM_P2
2021/09/27 00:01:39;;;;;;;0.40;0.20;;;;;;;14.46;63.65;101079.41;113161;1193;94810;-80
2021/09/27 00:04:05;;;;;;;0.40;0.20;;;;;;;14.35;63.62;101071.73;112943;1192;94930;-79
2021/09/27 00:06:31;;;;;;;0.40;0.30;;;;;;;14.30;63.81;101072.95;114587;1192;140642;-80
2021/09/27 00:08:57;;;;;;;0.40;0.30;;;;;;;14.28;63.88;101071.05;113838;1192;95267;-83
2021/09/27 00:11:25;;;;;;;0.40;0.20;;;;;;;14.30;63.60;101062.59;112991;1193;137242;-82
2021/09/27 00:13:54;;;;;;;0.40;0.20;;;;;;;14.34;63.10;101061.74;113135;1193;94891;-80
2021/09/27 00:16:21;;;;;;;0.40;0.30;;;;;;;14.27;63.15;101062.16;112811;1192;108494;-80
2021/09/27 00:18:47;;;;;;;0.40;0.20;;;;;;;14.24;63.39;101062.96;112819;1193;139600;-79
2021/09/27 00:21:19;;;;;;;0.40;0.30;;;;;;;14.28;63.28;101062.65;113022;1193;94900;-80
2021/09/27 00:23:47;;;;;;;0.40;0.20;;;;;;;14.26;63.26;101066.45;113262;1193;137239;-79
2021/09/27 00:26:13;;;;;;;0.40;0.20;;;;;;;14.17;62.93;101064.05;113160;1193;108059;-79
2021/09/27 00:28:38;;;;;;;0.40;0.30;;;;;;;14.09;63.20;101062.52;112845;1193;140021;-80
2021/09/27 00:31:04;;;;;;;0.40;0.20;;;;;;;14.07;63.33;101059.73;113128;1193;95532;-80
2021/09/27 00:33:31;;;;;;;0.40;0.20;;;;;;;14.12;63.22;101057.23;113031;1193;95430;-80
2021/09/27 00:35:57;;;;;;;0.40;0.20;;;;;;;14.09;63.24;101058.58;113089;1193;138542;-79
2021/09/27 00:38:24;;;;;;;0.40;0.20;;;;;;;14.01;63.31;101062.95;113153;1193;95347;-81
2021/09/27 00:40:54;;;;;;;0.40;0.30;;;;;;;13.97;63.38;101063.95;113023;1193;138541;-80
2021/09/27 00:43:21;;;;;;;0.40;0.30;;;;;;;14.02;63.50;101061.11;113619;1193;109918;-79
2021/09/27 00:45:51;;;;;;;0.40;0.20;;;;;;;14.01;63.36;101061.67;113127;1193;95419;-80
2021/09/27 00:48:17;;;;;;;0.40;0.20;;;;;;;13.97;63.23;101058.61;113049;1193;138324;-80
2021/09/27 00:50:47;;;;;;;0.40;0.20;;;;;;;13.91;63.40;101058.59;113289;1192;94710;-80
2021/09/27 00:53:27;;;;;;;0.40;0.30;;;;;;;13.89;63.67;101058.83;113444;1192;140033;-81
2021/09/27 00:55:56;;;;;;;0.40;0.20;;;;;;;13.90;63.33;101057.73;112974;1193;94996;-80
2021/09/27 00:58:23;;;;;;;0.40;0.20;;;;;;;13.86;63.61;101055.88;112897;1193;94899;-80
2021/09/27 01:00:50;;;;;;;0.40;0.30;;;;;;;13.83;63.50;101054.38;113419;1193;137552;-80
2021/09/27 01:03:17;;;;;;;0.40;0.30;;;;;;;13.82;63.45;101057.08;112913;1193;94945;-80
2021/09/27 01:05:52;;;;;;;0.40;0.20;;;;;;;13.82;63.65;101058.15;112921;1192;138541;-80
2021/09/27 01:08:47;;;;;;;0.40;0.20;;;;;;;13.88;63.40;101054.58;113236;1193;95010;-79
2021/09/27 01:11:32;;;;;;;0.40;0.20;;;;;;;13.87;63.17;101052.27;112858;1193;140137;-79
2021/09/27 01:14:27;;;;;;;0.40;0.20;;;;;;;13.79;63.14;101050.20;113230;1192;110143;-79
2021/09/27 01:17:17;;;;;;;0.40;0.20;;;;;;;13.78;63.29;101050.59;113028;1192;138848;-80
2021/09/27 01:20:36;;;;;;;0.40;0.30;;;;;;;13.88;63.39;101052.41;113000;1192;95106;-80
2021/09/27 01:23:40;;;;;;;0.40;0.20;;;;;;;13.94;63.03;101055.11;112541;1193;139775;-77
2021/09/27 01:26:27;;;;;;;0.40;0.20;;;;;;;13.82;63.13;101051.16;113260;1192;107973;-78
2021/09/27 01:29:30;;;;;;;0.40;0.20;;;;;;;13.77;63.25;101048.46;112964;1192;140866;-78
2021/09/27 01:32:21;;;;;;;0.40;0.20;;;;;;;13.75;63.24;101051.74;112778;1192;94973;-80
2021/09/27 01:35:29;;;;;;;0.40;0.20;;;;;;;13.74;63.22;101054.80;112712;1193;138827;-79
2021/09/27 01:38:21;;;;;;;0.40;0.30;;;;;;;13.69;63.46;101060.10;112957;1192;109374;-80
2021/09/27 01:40:54;;;;;;;0.40;0.20;;;;;;;13.78;63.13;101062.35;112821;1192;141479;-79
2021/09/27 01:43:36;;;;;;;0.40;0.30;;;;;;;13.71;63.00;101058.27;114558;1193;93333;-79
2021/09/27 01:46:24;;;;;;;0.40;0.30;;;;;;;13.72;63.41;101057.73;112628;1193;109455;-79
2021/09/27 01:49:07;;;;;;;0.40;0.30;;;;;;;13.76;63.41;101058.31;112701;1192;138218;-79
2021/09/27 01:51:44;;;;;;;0.40;0.20;;;;;;;13.76;63.34;101058.84;112794;1193;95164;-79
2021/09/27 01:54:28;;;;;;;0.40;0.30;;;;;;;13.71;63.40;101049.54;112942;1192;136943;-80
2021/09/27 01:57:15;;;;;;;0.40;0.20;;;;;;;13.68;63.25;101049.61;112969;1192;109220;-80
2021/09/27 01:59:47;;;;;;;0.40;0.30;;;;;;;13.64;63.41;101048.67;112834;1192;138887;-80
2021/09/27 02:02:55;;;;;;;0.40;0.20;;;;;;;13.54;63.64;101055.36;113068;1192;95517;-80
2021/09/27 02:05:33;;;;;;;0.40;0.30;;;;;;;13.51;63.85;101061.48;112817;1192;140190;-79
2021/09/27 02:08:04;;;;;;;0.40;0.30;;;;;;;13.48;63.94;101060.89;113016;1192;109375;-79
2021/09/27 02:10:48;;;;;;;0.40;0.30;;;;;;;13.43;63.91;101058.87;112763;1192;137500;-79
2021/09/27 02:13:41;;;;;;;0.40;0.20;;;;;;;13.37;64.17;101060.83;112879;1193;94940;-80
2021/09/27 02:16:15;;;;;;;0.40;0.20;;;;;;;13.48;63.88;101061.96;112994;1192;94897;-80
2021/09/27 02:18:54;;;;;;;0.40;0.20;;;;;;;13.55;63.72;101061.05;112808;1192;136948;-80
2021/09/27 02:21:26;;;;;;;0.40;0.20;;;;;;;13.57;63.41;101059.03;112789;1193;109978;-80
2021/09/27 02:24:04;;;;;;;0.40;0.20;;;;;;;13.47;63.54;101062.35;112766;1193;140664;-80
2021/09/27 02:26:31;;;;;;;0.40;0.20;;;;;;;13.50;63.68;101062.63;112821;1192;94825;-79
2021/09/27 02:28:58;;;;;;;0.40;0.30;;;;;;;13.45;63.87;101065.23;112608;1192;138070;-80
2021/09/27 02:31:32;;;;;;;0.40;0.20;;;;;;;13.37;63.76;101064.92;112676;1192;95428;-79
2021/09/27 02:34:07;;;;;;;0.40;0.20;;;;;;;13.34;64.05;101067.14;114272;1192;93976;-80
2021/09/27 02:36:44;;;;;;;0.40;0.20;;;;;;;13.43;64.00;101067.09;112668;1192;138745;-80
2021/09/27 02:39:30;;;;;;;0.40;0.20;;;;;;;13.47;63.64;101068.40;112671;1193;108816;-80
2021/09/27 02:42:06;;;;;;;0.40;0.20;;;;;;;13.32;63.92;101069.48;112649;1192;138134;-80
2021/09/27 02:44:33;;;;;;;0.40;0.30;;;;;;;13.28;63.97;101066.75;112463;1193;95334;-79
2021/09/27 02:47:02;;;;;;;0.40;0.20;;;;;;;13.31;64.10;101071.67;113933;1192;140060;-79
2021/09/27 02:49:34;;;;;;;0.40;0.20;;;;;;;13.33;63.88;101072.14;114214;1192;107681;-80
2021/09/27 02:52:03;;;;;;;0.40;0.20;;;;;;;13.29;63.80;101075.27;114279;1192;110129;-79
2021/09/27 02:54:35;;;;;;;0.40;0.20;;;;;;;13.21;63.96;101073.89;112884;1193;139937;-79
2021/09/27 02:57:07;;;;;;;0.40;0.30;;;;;;;13.17;64.15;101072.74;113330;1192;94827;-79
2021/09/27 02:59:50;;;;;;;0.40;0.20;;;;;;;13.18;64.30;101073.09;113218;1192;141706;-79
2021/09/27 03:02:26;;;;;;;0.40;0.30;;;;;;;13.16;64.29;101073.12;113213;1192;108995;-79
2021/09/27 03:05:04;;;;;;;0.40;0.30;;;;;;;13.07;64.36;101072.82;115016;1193;139586;-80
2021/09/27 03:08:08;;;;;;;0.40;0.30;;;;;;;13.02;64.68;101065.27;115075;1192;93508;-80
2021/09/27 03:11:03;;;;;;;0.40;0.30;;;;;;;13.07;64.85;101060.88;114411;1193;141365;-79
2021/09/27 03:13:33;;;;;;;0.40;0.30;;;;;;;13.10;64.67;101064.02;112841;1193;109140;-79
2021/09/27 03:16:15;;;;;;;0.40;0.30;;;;;;;13.03;64.67;101065.27;113070;1192;95320;-78
2021/09/27 03:19:00;;;;;;;0.40;0.20;;;;;;;13.07;64.81;101068.20;112855;1192;139660;-79
2021/09/27 03:21:42;;;;;;;0.40;0.30;;;;;;;13.12;64.77;101064.13;112216;1192;108227;-79
2021/09/27 03:24:38;;;;;;;0.40;0.30;;;;;;;13.07;64.80;101065.16;111889;1192;139473;-78
2021/09/27 03:27:40;;;;;;;0.40;0.30;;;;;;;13.01;65.02;101062.64;112259;1192;94926;-78
2021/09/27 03:30:14;;;;;;;0.40;0.30;;;;;;;13.04;64.87;101061.31;112419;1192;137337;-80
2021/09/27 03:32:56;;;;;;;0.40;0.30;;;;;;;13.03;65.01;101063.13;113284;1192;108166;-79
2021/09/27 03:35:41;;;;;;;0.40;0.30;;;;;;;13.04;64.92;101061.66;113251;1192;138167;-79
2021/09/27 03:38:11;;;;;;;0.40;0.30;;;;;;;12.95;64.97;101057.08;113425;1192;94889;-79
2021/09/27 03:41:13;;;;;;;0.40;0.30;;;;;;;12.86;65.23;101062.84;113006;1192;140416;-79
2021/09/27 03:43:50;;;;;;;0.40;0.30;;;;;;;12.82;65.34;101064.00;112496;1196;109689;-79
2021/09/27 03:46:37;;;;;;;0.40;0.30;;;;;;;12.87;65.46;101062.28;113289;1192;109927;-80
2021/09/27 03:49:14;;;;;;;0.40;0.40;;;;;;;12.80;65.34;101062.45;113124;1193;138260;-80
2021/09/27 03:51:47;;;;;;;0.40;0.30;;;;;;;12.75;65.62;101062.21;113182;1193;95320;-79
2021/09/27 03:54:37;;;;;;;0.40;0.30;;;;;;;12.73;65.71;101056.73;113007;1193;138321;-79
2021/09/27 03:57:12;;;;;;;0.40;0.30;;;;;;;12.73;65.65;101057.29;113055;1192;108673;-80
2021/09/27 03:59:47;;;;;;;0.40;0.30;;;;;;;12.82;65.69;101056.00;113206;1193;138973;-80
2021/09/27 04:02:42;;;;;;;0.40;0.30;;;;;;;12.82;65.44;101050.45;113132;1192;96046;-80
2021/09/27 04:05:28;;;;;;;0.40;0.30;;;;;;;12.74;65.69;101042.11;112838;1193;140192;-80
2021/09/27 04:08:13;;;;;;;0.40;0.40;;;;;;;12.76;65.51;101039.56;113314;1193;109890;-79
2021/09/27 04:10:53;;;;;;;0.40;0.30;;;;;;;12.77;65.49;101040.06;113605;1192;94873;-79
2021/09/27 04:13:53;;;;;;;0.40;0.30;;;;;;;12.82;65.46;101041.36;113068;1192;138178;-80
2021/09/27 04:16:52;;;;;;;0.40;0.40;;;;;;;12.73;65.23;101041.06;114142;1192;109576;-80
2021/09/27 04:19:31;;;;;;;0.40;0.30;;;;;;;12.71;65.48;101045.55;113622;1192;139259;-79
2021/09/27 04:22:00;;;;;;;0.40;0.30;;;;;;;12.81;65.61;101048.16;113113;1192;94995;-80
2021/09/27 04:24:34;;;;;;;0.40;0.20;;;;;;;12.90;65.47;101049.20;113184;1192;137834;-81
2021/09/27 04:27:39;;;;;;;0.40;0.20;;;;;;;12.92;65.10;101051.62;113443;1192;108993;-80
2021/09/27 04:30:14;;;;;;;0.40;0.30;;;;;;;12.85;65.37;101050.73;112684;1193;137987;-81
2021/09/27 04:33:03;;;;;;;0.40;0.30;;;;;;;12.90;65.17;101051.51;112903;1193;95395;-80
2021/09/27 04:35:49;;;;;;;0.40;0.30;;;;;;;12.85;65.46;101048.25;112811;1193;139639;-80
2021/09/27 04:38:16;;;;;;;0.40;0.30;;;;;;;12.84;65.29;101047.89;112800;1193;107792;-80
2021/09/27 04:41:34;;;;;;;0.40;0.30;;;;;;;12.83;65.51;101045.27;113275;1192;94926;-80
2021/09/27 04:44:17;;;;;;;0.40;0.30;;;;;;;12.75;65.62;101049.37;113257;1193;93980;-81
2021/09/27 04:46:53;;;;;;;0.40;0.20;;;;;;;12.76;65.67;101050.61;113638;1192;94783;-80
2021/09/27 04:49:32;;;;;;;0.40;0.30;;;;;;;12.80;65.60;101050.33;113406;1192;138087;-80
2021/09/27 04:52:06;;;;;;;0.40;0.20;;;;;;;12.82;65.41;101053.13;113495;1192;107955;-80
2021/09/27 04:54:51;;;;;;;0.40;0.20;;;;;;;12.79;65.55;101054.65;113582;1193;138208;-81
2021/09/27 04:57:33;;;;;;;0.40;0.20;;;;;;;12.74;65.78;101058.13;113746;1193;94787;-81
2021/09/27 05:00:16;;;;;;;0.40;0.30;;;;;;;12.71;65.82;101056.80;113257;1193;140007;-79
2021/09/27 05:03:20;;;;;;;0.40;0.20;;;;;;;12.76;65.70;101060.21;113178;1193;110016;-80
2021/09/27 05:06:22;;;;;;;0.40;0.30;;;;;;;12.79;65.62;101063.37;113359;1191;140025;-80
2021/09/27 05:09:23;;;;;;;0.40;0.30;;;;;;;12.72;65.99;101065.50;113263;1192;95079;-81
2021/09/27 05:12:06;;;;;;;0.40;0.30;;;;;;;12.71;65.82;101061.08;113010;1193;139243;-81
2021/09/27 05:15:03;;;;;;;0.40;0.30;;;;;;;12.73;65.93;101059.77;113220;1193;110303;-79
2021/09/27 05:17:57;;;;;;;0.40;0.20;;;;;;;12.77;65.81;101059.15;113186;1192;139836;-80
2021/09/27 05:20:50;;;;;;;0.40;0.30;;;;;;;12.69;65.87;101059.88;113507;1192;95190;-80
2021/09/27 05:23:51;;;;;;;0.40;0.30;;;;;;;12.65;66.13;101057.48;113162;1192;108002;-80
2021/09/27 05:26:49;;;;;;;0.40;0.20;;;;;;;12.73;66.01;101056.41;114132;1192;109137;-81
2021/09/27 05:29:47;;;;;;;0.40;0.20;;;;;;;12.77;66.03;101054.14;113963;1192;94862;-80
2021/09/27 05:32:40;;;;;;;0.40;0.20;;;;;;;12.76;66.07;101052.94;113411;1192;136889;-81
2021/09/27 05:35:21;;;;;;;0.40;0.30;;;;;;;12.73;66.39;101054.43;113179;1192;107759;-80
2021/09/27 05:38:03;;;;;;;2.90;2.80;;;;;;;12.80;66.39;101058.35;113486;1192;139867;-80
2021/09/27 05:40:34;;;;;;;0.40;0.30;;;;;;;12.82;66.13;101061.16;113257;1192;95327;-80
2021/09/27 05:43:22;;;;;;;0.40;0.30;;;;;;;12.82;66.13;101060.61;113019;1192;137622;-80
2021/09/27 05:46:20;;;;;;;0.40;0.20;;;;;;;12.87;66.45;101059.79;113263;1192;109693;-79
2021/09/27 05:48:59;;;;;;;7.50;7.10;;;;;;;12.90;66.59;101068.41;113128;1192;139214;-79
2021/09/27 05:51:40;;;;;;;0.40;0.30;;;;;;;12.96;66.21;101070.25;114391;1192;97229;-80
2021/09/27 05:54:16;;;;;;;5.00;4.70;;;;;;;12.98;66.29;101070.03;113335;1192;138885;-79
2021/09/27 05:56:47;;;;;;;0.40;0.20;;;;;;;13.02;66.15;101070.27;113436;1192;109259;-81
2021/09/27 05:59:20;;;;;;;0.40;0.20;;;;;;;13.06;65.82;101070.52;113426;1192;109895;-79
2021/09/27 06:01:58;;;;;;;0.40;0.20;;;;;;;13.01;65.95;101073.33;112968;1192;139777;-79
2021/09/27 06:04:28;;;;;;;0.40;0.30;;;;;;;13.03;66.29;101073.29;113761;1193;94826;-80
2021/09/27 06:07:02;;;;;;;0.40;0.20;;;;;;;13.20;66.16;101072.14;113178;1192;139985;-81
2021/09/27 06:09:41;;;;;;;0.40;0.20;;;;;;;13.34;65.61;101074.96;113591;1192;109696;-80
2021/09/27 06:12:23;;;;;;;2.40;2.30;;;;;;;13.36;65.68;101079.03;112896;1193;141037;-79
2021/09/27 06:14:52;;;;;;;0.40;0.30;;;;;;;13.37;65.73;101076.88;113149;1192;94896;-79
2021/09/27 06:17:32;;;;;;;0.50;0.50;;;;;;;13.44;65.70;101075.62;113525;1192;109025;-82
2021/09/27 06:20:18;;;;;;;0.40;0.20;;;;;;;13.43;65.26;101075.47;113513;1192;139499;-81
2021/09/27 06:22:51;;;;;;;0.40;0.20;;;;;;;13.43;65.17;101077.61;113454;1192;94912;-80
2021/09/27 06:25:37;;;;;;;0.40;0.20;;;;;;;13.42;65.43;101078.17;113177;1192;138268;-82
2021/09/27 06:28:31;;;;;;;0.40;0.20;;;;;;;13.41;65.62;101074.28;113291;1193;109134;-81
2021/09/27 06:31:02;;;;;;;0.40;0.20;;;;;;;13.58;65.75;101073.64;112865;1192;138249;-80
2021/09/27 06:33:30;;;;;;;0.40;0.20;;;;;;;13.71;65.39;101073.63;113324;1192;94914;-80
2021/09/27 06:35:57;;;;;;;0.40;0.20;;;;;;;13.81;65.02;101072.45;113006;1192;139651;-80
2021/09/27 06:38:28;;;;;;;0.40;0.20;;;;;;;13.85;64.99;101074.11;113387;1192;94835;-82
2021/09/27 06:40:55;;;;;;;0.40;0.20;;;;;;;13.82;64.73;101074.92;112996;1192;108924;-80
2021/09/27 06:43:24;;;;;;;0.40;0.20;;;;;;;13.86;64.65;101074.79;113105;1192;138255;-79
2021/09/27 06:45:52;;;;;;;0.40;0.20;;;;;;;13.97;64.20;101074.98;113597;1192;94796;-81
2021/09/27 06:48:20;;;;;;;0.40;0.20;;;;;;;13.99;64.32;101073.34;113034;1192;139723;-80
2021/09/27 06:50:47;;;;;;;0.40;0.20;;;;;;;14.02;64.40;101067.71;112955;1193;108992;-82
2021/09/27 06:53:14;;;;;;;0.40;0.30;;;;;;;13.99;64.09;101070.49;113179;1193;95019;-81
2021/09/27 06:55:42;;;;;;;0.50;0.40;;;;;;;14.07;64.76;101069.20;113077;1193;140906;-81
2021/09/27 06:58:09;;;;;;;0.40;0.20;;;;;;;14.15;64.12;101066.63;113461;1192;109339;-82
2021/09/27 07:00:38;;;;;;;0.40;0.30;;;;;;;14.17;63.91;101070.12;113042;1192;138550;-80
2021/09/27 07:03:05;;;;;;;0.40;0.30;;;;;;;14.22;64.22;101071.77;113367;1193;96070;-80
2021/09/27 07:05:31;;;;;;;0.40;0.20;;;;;;;14.31;64.31;101069.35;112844;1192;95317;-81
2021/09/27 07:08:00;;;;;;;0.40;0.20;;;;;;;14.41;63.95;101071.55;112948;1193;138327;-80
2021/09/27 07:10:27;;;;;;;0.40;0.20;;;;;;;14.50;63.34;101064.63;113203;1193;94891;-82
2021/09/27 07:12:54;;;;;;;0.40;0.20;;;;;;;14.55;63.08;101061.27;112514;1193;138002;-80
2021/09/27 07:15:21;;;;;;;0.40;0.30;;;;;;;14.56;63.10;101064.29;112764;1193;95151;-80
2021/09/27 07:17:47;;;;;;;0.40;0.20;;;;;;;14.65;63.21;101068.48;112814;1193;94979;-84
2021/09/27 07:20:19;;;;;;;0.40;0.20;;;;;;;14.77;62.89;101069.86;113670;1192;140725;-83
2021/09/27 07:22:51;;;;;;;0.40;0.20;;;;;;;14.86;62.30;101063.86;114743;1192;94939;-82
2021/09/27 07:25:18;;;;;;;0.40;0.20;;;;;;;14.94;62.26;101063.62;113958;1192;139153;-81
2021/09/27 07:27:44;;;;;;;0.40;0.20;;;;;;;14.98;61.97;101063.63;113587;1193;94797;-83
2021/09/27 07:30:12;;;;;;;0.50;0.40;;;;;;;14.99;62.26;101058.77;113628;1192;138264;-82
2021/09/27 07:32:40;;;;;;;0.40;0.20;;;;;;;15.06;61.88;101062.33;113877;1192;94791;-83
2021/09/27 07:35:09;;;;;;;0.40;0.30;;;;;;;15.16;62.16;101060.68;114111;1192;94771;-80
2021/09/27 07:37:38;;;;;;;0.40;0.20;;;;;;;15.26;61.30;101059.48;113769;1192;138148;-81
2021/09/27 07:40:07;;;;;;;0.40;0.20;;;;;;;15.35;61.55;101060.56;114579;1192;109913;-82
2021/09/27 07:42:35;;;;;;;0.40;0.20;;;;;;;15.45;60.64;101066.31;113837;1192;139882;-83
2021/09/27 07:45:04;;;;;;;0.40;0.20;;;;;;;15.48;60.88;101069.06;113464;1193;94822;-80
2021/09/27 07:47:31;;;;;;;0.40;0.20;;;;;;;15.56;60.99;101071.99;113363;1193;109507;-83
2021/09/27 07:49:57;;;;;;;0.40;0.20;;;;;;;15.66;60.41;101070.20;113801;1193;139514;-87
2021/09/27 07:52:24;;;;;;;0.40;0.20;;;;;;;15.75;60.47;101070.40;114222;1193;94981;-80
2021/09/27 07:54:51;;;;;;;0.40;0.20;;;;;;;15.89;60.40;101071.54;114990;1193;137603;-81
2021/09/27 07:57:18;;;;;;;0.40;0.20;;;;;;;15.97;59.51;101073.76;114936;1192;93272;-81
2021/09/27 07:59:47;;;;;;;0.40;0.20;;;;;;;16.05;59.47;101073.42;115230;1192;94474;-80
2021/09/27 08:02:18;;;;;;;0.40;0.20;;;;;;;16.10;58.99;101073.08;115009;1192;137002;-81
2021/09/27 08:04:45;;;;;;;0.40;0.20;;;;;;;16.18;58.82;101069.91;113082;1193;95521;-81
2021/09/27 08:07:13;;;;;;;0.40;0.20;;;;;;;16.34;58.83;101064.98;113375;1192;139945;-82
2021/09/27 08:09:41;;;;;;;0.40;0.10;;;;;;;16.47;58.95;101060.15;113554;1192;94765;-81
2021/09/27 08:12:08;;;;;;;0.40;0.20;;;;;;;16.56;58.50;101059.06;113512;1192;139865;-82
2021/09/27 08:14:34;;;;;;;0.40;0.20;;;;;;;16.61;58.15;101058.89;113272;1192;93918;-80
2021/09/27 08:17:01;;;;;;;0.40;0.10;;;;;;;16.62;58.07;101058.45;113066;1192;95127;-80
2021/09/27 08:19:27;;;;;;;0.40;0.10;;;;;;;16.66;58.51;101055.27;112684;1193;138228;-81
2021/09/27 08:21:54;;;;;;;0.40;0.20;;;;;;;16.70;57.90;101051.52;113514;1192;94876;-80
2021/09/27 08:24:21;;;;;;;0.40;0.20;;;;;;;16.76;58.28;101053.59;113050;1192;138122;-79
2021/09/27 08:26:47;;;;;;;0.40;0.10;;;;;;;16.85;57.55;101050.34;113183;1192;94850;-77
2021/09/27 08:29:15;;;;;;;0.40;0.20;;;;;;;16.91;57.37;101048.14;112701;1192;97171;-80
2021/09/27 08:31:42;;;;;;;0.40;0.10;;;;;;;17.01;57.28;101049.52;112557;1192;139936;-81
2021/09/27 08:34:09;;;;;;;0.40;0.10;;;;;;;17.05;56.59;101050.77;113305;1192;95439;-81
2021/09/27 08:36:35;;;;;;;0.40;0.10;;;;;;;17.08;56.58;101051.92;113211;1193;137282;-80
2021/09/27 08:39:03;;;;;;;0.40;0.20;;;;;;;17.13;56.75;101053.31;113354;1192;95324;-80
2021/09/27 08:41:46;;;;;;;0.40;0.10;;;;;;;17.23;56.53;101051.64;113425;1192;109011;-79
2021/09/27 08:44:23;;;;;;;0.40;0.10;;;;;;;17.30;55.86;101057.05;112917;1192;138474;-79
2021/09/27 08:46:55;;;;;;;0.40;0.20;;;;;;;17.37;55.95;101058.57;112473;1193;95187;-79
2021/09/27 08:49:24;;;;;;;0.40;0.20;;;;;;;17.51;55.48;101058.83;112111;1193;140573;-79
2021/09/27 08:51:51;;;;;;;0.40;0.20;;;;;;;17.66;54.54;101056.02;112748;1192;108450;-80
2021/09/27 08:54:21;;;;;;;0.40;0.10;;;;;;;17.91;53.90;101058.68;112851;1192;138792;-80
2021/09/27 08:57:06;;;;;;;0.40;0.10;;;;;;;18.18;53.42;101059.91;113737;1192;94879;-79
2021/09/27 09:00:00;;;;;;;0.40;0.10;;;;;;;18.52;51.44;101061.71;113259;1192;94854;-80
2021/09/27 09:02:39;;;;;;;0.40;0.10;;;;;;;18.84;49.51;101059.94;113174;1193;139131;-80
2021/09/27 09:05:41;;;;;;;0.40;0.10;;;;;;;19.01;49.00;101050.70;113521;1192;110054;-80
2021/09/27 09:08:19;;;;;;;0.40;0.10;;;;;;;19.16;49.04;101057.09;113109;1192;139544;-80
2021/09/27 09:11:23;;;;;;;0.40;0.10;;;;;;;19.30;49.94;101056.56;113467;1192;94917;-78
2021/09/27 09:13:59;;;;;;;0.40;0.10;;;;;;;19.56;48.59;101055.38;113351;1193;137155;-80
2021/09/27 09:16:28;;;;;;;0.40;0.10;;;;;;;19.64;48.84;101053.86;113499;1192;109138;-80
2021/09/27 09:19:01;;;;;;;0.40;0.10;;;;;;;19.88;47.59;101053.36;112998;1193;139353;-80
2021/09/27 09:21:48;;;;;;;0.40;0.10;;;;;;;19.84;47.27;101051.91;113633;1192;94876;-80
2021/09/27 09:24:28;;;;;;;0.40;0.10;;;;;;;19.93;47.81;101051.64;113620;1192;139529;-80
2021/09/27 09:27:00;;;;;;;0.40;0.10;;;;;;;20.03;48.22;101049.27;113425;1192;109926;-79
2021/09/27 09:29:30;;;;;;;0.40;0.10;;;;;;;20.24;47.56;101048.31;113434;1192;94917;-81
2021/09/27 09:32:22;;;;;;;0.40;0.10;;;;;;;20.25;47.02;101046.77;113707;1192;139851;-80
2021/09/27 09:34:53;;;;;;;0.40;0.10;;;;;;;20.19;46.28;101047.33;113841;1192;109333;-80
2021/09/27 09:37:37;;;;;;;0.40;0.10;;;;;;;20.57;45.64;101044.07;113358;1192;137868;-80
2021/09/27 09:40:21;;;;;;;0.40;0.10;;;;;;;21.55;44.24;101044.55;113755;1192;94883;-82
2021/09/27 09:43:12;;;;;;;0.40;0.10;;;;;;;22.35;44.31;101036.58;113458;1192;138340;-81
2021/09/27 09:45:46;;;;;;;0.40;0.10;;;;;;;24.24;40.19;101034.23;113513;1192;109462;-82
2021/09/27 09:48:18;;;;;;;0.40;0.00;;;;;;;26.19;36.83;101029.55;113486;1192;137381;-80
2021/09/27 09:50:49;;;;;;;0.40;0.10;;;;;;;27.66;33.54;101029.35;113675;1192;96106;-79
2021/09/27 09:53:23;;;;;;;0.40;0.00;;;;;;;28.93;31.42;101024.77;113721;1192;95546;-80
2021/09/27 09:56:00;;;;;;;0.40;0.00;;;;;;;29.96;29.77;101025.38;114422;1192;139622;-80
2021/09/27 09:58:44;;;;;;;0.40;0.00;;;;;;;31.11;29.15;101018.05;113604;1192;101696;-80
2021/09/27 10:01:21;;;;;;;0.40;0.00;;;;;;;32.05;26.08;101022.60;113536;1193;140451;-80
2021/09/27 10:04:10;;;;;;;0.40;0.00;;;;;;;32.59;25.75;101018.36;113236;1193;94964;-80
2021/09/27 10:06:46;;;;;;;0.40;0.00;;;;;;;33.51;24.53;101013.95;113118;1192;139820;-80
2021/09/27 10:09:27;;;;;;;0.40;0.00;;;;;;;34.45;23.25;101008.53;113781;1192;101639;-80
2021/09/27 10:11:57;;;;;;;0.40;0.00;;;;;;;34.79;21.99;101007.39;113413;1192;94892;-81
2021/09/27 10:14:32;;;;;;;0.40;0.00;;;;;;;34.89;22.13;101008.99;113386;1192;138316;-79
2021/09/27 10:17:27;;;;;;;0.40;0.00;;;;;;;35.51;22.08;101011.66;113777;1192;99551;-80
2021/09/27 10:20:03;;;;;;;0.40;0.00;;;;;;;35.76;20.77;101012.67;113553;1192;137251;-79
2021/09/27 10:22:35;;;;;;;0.40;0.00;;;;;;;35.96;20.55;101017.44;113773;1191;95304;-83
2021/09/27 10:25:23;;;;;;;0.40;0.00;;;;;;;36.05;20.47;101015.47;113741;1192;138261;-82
2021/09/27 10:27:50;;;;;;;0.40;0.00;;;;;;;36.61;20.49;101008.61;113718;1192;101049;-81
2021/09/27 10:30:48;;;;;;;0.40;0.00;;;;;;;36.09;19.87;101008.70;113621;1192;138850;-81
2021/09/27 10:33:23;;;;;;;0.40;0.00;;;;;;;35.09;20.95;101006.20;113263;1192;95268;-79
2021/09/27 10:36:00;;;;;;;0.40;0.00;;;;;;;34.18;22.41;101004.06;113353;1193;94913;-80
2021/09/27 10:38:36;;;;;;;0.40;0.00;;;;;;;32.52;23.43;101004.48;113646;1193;137653;-80
2021/09/27 10:41:12;;;;;;;0.40;0.00;;;;;;;30.97;25.76;101002.30;113974;1192;101464;-81
2021/09/27 10:43:39;;;;;;;0.40;0.00;;;;;;;29.49;26.56;100997.70;113266;1193;139357;-81
2021/09/27 10:46:06;;;;;;;0.40;0.00;;;;;;;28.24;28.21;101002.29;113995;1192;94920;-80
2021/09/27 10:48:33;;;;;;;0.40;0.00;;;;;;;27.18;29.19;101004.91;114564;1192;139478;-81
2021/09/27 10:51:06;;;;;;;0.40;0.00;;;;;;;25.89;29.78;100995.28;113425;1192;94818;-80
2021/09/27 10:53:54;;;;;;;0.40;0.00;;;;;;;24.94;31.89;100996.03;112710;1192;95417;-80
2021/09/27 10:56:37;;;;;;;0.40;0.00;;;;;;;24.18;33.08;100998.46;112861;1192;137617;-78
2021/09/27 10:59:13;;;;;;;0.40;0.00;;;;;;;23.63;35.19;101003.87;113222;1192;107672;-80
2021/09/27 11:01:41;;;;;;;0.40;0.00;;;;;;;23.08;36.13;101001.86;113518;1192;139039;-79
2021/09/27 11:04:16;;;;;;;0.40;0.10;;;;;;;22.77;37.28;100997.27;113545;1193;94998;-79
2021/09/27 11:06:52;;;;;;;0.40;0.00;;;;;;;22.48;37.58;100994.53;112218;1193;138936;-79
2021/09/27 11:09:25;;;;;;;0.40;0.00;;;;;;;22.11;37.93;100996.21;111970;1193;109925;-80
2021/09/27 11:12:07;;;;;;;0.40;0.10;;;;;;;21.66;37.93;100996.58;113055;1192;110142;-81
2021/09/27 11:14:39;;;;;;;0.40;0.10;;;;;;;21.30;39.15;100997.88;112749;1192;138519;-80
2021/09/27 11:17:06;;;;;;;1.00;0.70;;;;;;;21.11;38.96;100992.14;113009;1192;95583;-80
2021/09/27 11:19:32;;;;;;;0.40;0.10;;;;;;;20.91;39.88;100992.30;112999;1192;140359;-79
2021/09/27 11:22:14;;;;;;;0.40;0.10;;;;;;;20.83;40.94;100990.75;113235;1192;94915;-79
2021/09/27 11:24:44;;;;;;;0.40;0.10;;;;;;;20.78;41.05;100987.09;112134;1193;139568;-78
2021/09/27 11:27:16;;;;;;;0.40;0.10;;;;;;;20.67;41.92;100986.80;112862;1193;94997;-79
2021/09/27 11:29:51;;;;;;;0.40;0.10;;;;;;;20.70;42.38;100987.73;112639;1193;109357;-79
2021/09/27 11:32:28;;;;;;;0.40;0.10;;;;;;;20.65;42.76;100992.67;112665;1193;138587;-77
2021/09/27 11:35:00;;;;;;;0.40;0.10;;;;;;;20.57;42.43;100989.21;111969;1193;94899;-77
2021/09/27 11:37:34;;;;;;;0.40;0.10;;;;;;;20.49;42.34;100989.32;111792;1193;140199;-78
2021/09/27 11:40:01;;;;;;;0.40;0.10;;;;;;;20.32;42.65;100982.89;112170;1192;109162;-79
2021/09/27 11:42:53;;;;;;;0.40;0.10;;;;;;;20.19;41.90;100974.66;111555;1192;139030;-78
2021/09/27 11:45:44;;;;;;;0.40;0.10;;;;;;;20.05;43.25;100971.83;112455;1193;95442;-78
2021/09/27 11:48:17;;;;;;;0.40;0.10;;;;;;;20.09;44.63;100971.59;114821;1192;93106;-79
2021/09/27 11:51:01;;;;;;;0.40;0.10;;;;;;;20.13;44.24;100963.08;114174;1192;138830;-79
2021/09/27 11:53:31;;;;;;;0.40;0.10;;;;;;;20.08;45.12;100962.83;113481;1191;110318;-80
2021/09/27 11:56:07;;;;;;;0.40;0.10;;;;;;;20.02;45.19;100959.20;113548;1192;139191;-80
2021/09/27 11:58:44;;;;;;;0.40;0.10;;;;;;;20.03;44.97;100958.41;113201;1193;94871;-78